Time;durP1;ratioP1;P1;durP2;ratioP2;P2;SDS_P1;SDS_P2;PMS_P1;PMS_P2;Temp;Humidity;BMP_temperature;BMP_pressure;BME280_temperature;BME280_humidity;BME280_pressure;Samples;Min_cycle;Max_cycle;Signal;HPM_P1;HPM_P2
2023/03/26 00:01:04;;;;;;;14.80;7.45;;;;;;;;;;5076853;28;20017;-64
2023/03/26 00:03:32;;;;;;;12.65;6.82;;;;;;;;;;5076826;28;20095;-64
2023/03/26 00:06:02;;;;;;;12.35;7.35;;;;;;;;;;5076764;28;20033;-64
2023/03/26 00:08:28;;;;;;;14.02;7.68;;;;;;;;;;5076718;28;20024;-64
2023/03/26 00:10:54;;;;;;;13.00;7.40;;;;;;;;;;5076715;28;20031;-64
2023/03/26 00:13:20;;;;;;;16.35;7.90;;;;;;;;;;5076866;28;20024;-64
2023/03/26 00:15:47;;;;;;;11.27;6.95;;;;;;;;;;5076539;28;20035;-64
2023/03/26 00:18:13;;;;;;;13.35;6.50;;;;;;;;;;5076623;28;20103;-64
2023/03/26 00:20:40;;;;;;;12.63;6.82;;;;;;;;;;5076552;28;20020;-64
2023/03/26 00:23:07;;;;;;;14.75;7.28;;;;;;;;;;5076631;28;20069;-64
2023/03/26 00:25:33;;;;;;;12.48;6.80;;;;;;;;;;5076365;28;20451;-64
2023/03/26 00:27:59;;;;;;;16.75;7.95;;;;;;;;;;5076324;28;20382;-64
2023/03/26 00:30:26;;;;;;;16.85;7.53;;;;;;;;;;5076554;28;20398;-64
2023/03/26 00:32:52;;;;;;;20.75;7.50;;;;;;;;;;5076269;28;20028;-65
2023/03/26 00:35:18;;;;;;;19.08;8.30;;;;;;;;;;5075918;28;20139;-64
2023/03/26 00:37:44;;;;;;;17.90;8.38;;;;;;;;;;5076473;28;20036;-64
2023/03/26 00:40:11;;;;;;;13.60;7.88;;;;;;;;;;5076425;28;20539;-64
2023/03/26 00:42:37;;;;;;;20.48;8.23;;;;;;;;;;5076253;28;20509;-64
2023/03/26 00:45:04;;;;;;;15.75;8.45;;;;;;;;;;5075125;28;20418;-64
2023/03/26 00:47:30;;;;;;;18.98;9.10;;;;;;;;;;5076216;28;20039;-64
2023/03/26 00:49:57;;;;;;;18.88;9.00;;;;;;;;;;5075994;28;20021;-64
2023/03/26 00:52:23;;;;;;;17.42;9.13;;;;;;;;;;5076105;28;20021;-64
2023/03/26 00:54:51;;;;;;;16.38;9.15;;;;;;;;;;5075985;28;20035;-64
2023/03/26 00:57:19;;;;;;;19.40;9.57;;;;;;;;;;5075909;28;20379;-64
2023/03/26 00:59:45;;;;;;;23.80;10.30;;;;;;;;;;5075883;28;20020;-65
2023/03/26 01:02:15;;;;;;;27.08;10.88;;;;;;;;;;5075913;28;20024;-64
2023/03/26 01:04:43;;;;;;;23.75;9.50;;;;;;;;;;5075832;28;20021;-64
2023/03/26 01:07:12;;;;;;;30.27;10.98;;;;;;;;;;5075387;28;20125;-64
2023/03/26 01:09:41;;;;;;;20.27;9.30;;;;;;;;;;5075744;28;20028;-64
2023/03/26 01:12:08;;;;;;;22.67;10.07;;;;;;;;;;5075723;28;20039;-64
2023/03/26 01:14:34;;;;;;;22.50;9.95;;;;;;;;;;5075434;28;20414;-64
2023/03/26 01:17:01;;;;;;;27.35;10.75;;;;;;;;;;5075460;28;20033;-64
2023/03/26 01:19:30;;;;;;;24.92;10.85;;;;;;;;;;5075427;28;20547;-64
2023/03/26 01:21:57;;;;;;;34.65;11.43;;;;;;;;;;5075429;28;20063;-64
2023/03/26 01:24:23;;;;;;;30.58;11.35;;;;;;;;;;5075576;28;20020;-64
2023/03/26 01:26:56;;;;;;;28.30;10.25;;;;;;;;;;5075617;28;20499;-64
2023/03/26 01:29:31;;;;;;;23.70;10.23;;;;;;;;;;5075300;28;20025;-64
2023/03/26 01:32:00;;;;;;;30.00;10.32;;;;;;;;;;5075200;28;20428;-64
2023/03/26 01:37:12;;;;;;;22.25;9.60;;;;;;;;;;5070575;28;20738;-63
2023/03/26 01:39:47;;;;;;;30.40;8.30;;;;;;;;;;5070737;28;20518;-64
2023/03/26 01:42:21;;;;;;;25.80;8.27;;;;;;;;;;5070595;28;20028;-64
2023/03/26 01:44:52;;;;;;;24.13;8.48;;;;;;;;;;5070776;28;20127;-64
2023/03/26 01:47:19;;;;;;;23.70;7.50;;;;;;;;;;5070429;28;20029;-63
2023/03/26 01:49:45;;;;;;;21.40;7.07;;;;;;;;;;5070255;28;20063;-64
2023/03/26 01:52:15;;;;;;;30.42;8.20;;;;;;;;;;5070370;28;20423;-63
2023/03/26 01:54:41;;;;;;;26.50;7.88;;;;;;;;;;5070259;28;20032;-63
2023/03/26 01:57:16;;;;;;;34.55;8.70;;;;;;;;;;5069982;28;20544;-63
2023/03/26 01:59:50;;;;;;;32.17;8.18;;;;;;;;;;5070440;28;20025;-63
2023/03/26 02:02:37;;;;;;;32.20;8.18;;;;;;;;;;5070277;28;20029;-64
2023/03/26 02:05:08;;;;;;;29.38;8.02;;;;;;;;;;5070051;28;20021;-63
2023/03/26 02:07:38;;;;;;;30.13;7.95;;;;;;;;;;5070158;28;20115;-63
2023/03/26 02:10:12;;;;;;;31.90;8.02;;;;;;;;;;5070131;28;20074;-63
2023/03/26 02:12:38;;;;;;;34.38;8.48;;;;;;;;;;5069879;28;20135;-63
2023/03/26 02:15:04;;;;;;;34.58;8.15;;;;;;;;;;5069833;28;20025;-64
2023/03/26 02:17:31;;;;;;;38.95;7.75;;;;;;;;;;5069615;28;20032;-64
2023/03/26 02:19:58;;;;;;;37.38;9.00;;;;;;;;;;5069481;28;20028;-64
2023/03/26 02:22:28;;;;;;;35.13;7.68;;;;;;;;;;5069942;28;20390;-64
2023/03/26 02:24:54;;;;;;;30.13;7.88;;;;;;;;;;5069707;28;20021;-64
2023/03/26 02:27:20;;;;;;;33.10;7.60;;;;;;;;;;5069786;28;20433;-64
2023/03/26 02:29:46;;;;;;;35.15;7.55;;;;;;;;;;5069691;28;20040;-66
2023/03/26 02:32:12;;;;;;;33.20;8.30;;;;;;;;;;5069822;28;20028;-64
2023/03/26 02:34:39;;;;;;;38.28;8.45;;;;;;;;;;5069383;28;20039;-64
2023/03/26 02:37:06;;;;;;;31.20;7.40;;;;;;;;;;5069616;28;20036;-64
2023/03/26 02:39:32;;;;;;;26.95;6.80;;;;;;;;;;5069546;28;20025;-64
2023/03/26 02:41:58;;;;;;;30.45;7.43;;;;;;;;;;5069307;28;20032;-64
2023/03/26 02:44:24;;;;;;;32.75;7.90;;;;;;;;;;5069395;28;20029;-64
2023/03/26 02:46:50;;;;;;;35.78;6.57;;;;;;;;;;5065062;28;20475;-64
2023/03/26 02:49:16;;;;;;;31.75;7.90;;;;;;;;;;5056038;28;20111;-64
2023/03/26 02:51:42;;;;;;;30.98;7.57;;;;;;;;;;5056012;28;20031;-63
2023/03/26 02:54:08;;;;;;;43.00;7.30;;;;;;;;;;5055989;28;20120;-64
2023/03/26 02:56:34;;;;;;;41.03;7.05;;;;;;;;;;5055718;28;20109;-64
2023/03/26 02:59:00;;;;;;;34.25;6.95;;;;;;;;;;5055954;28;20036;-64
2023/03/26 03:01:29;;;;;;;37.22;6.10;;;;;;;;;;5055954;28;20040;-65
2023/03/26 03:03:55;;;;;;;34.42;7.45;;;;;;;;;;5055549;28;20059;-64
2023/03/26 03:06:21;;;;;;;38.38;8.57;;;;;;;;;;5055877;28;20101;-64
2023/03/26 03:08:47;;;;;;;40.65;7.55;;;;;;;;;;5055652;28;20036;-64
2023/03/26 03:11:15;;;;;;;32.10;7.13;;;;;;;;;;5055853;28;20042;-64
2023/03/26 03:13:41;;;;;;;42.10;8.10;;;;;;;;;;5055672;28;20032;-64
2023/03/26 03:16:07;;;;;;;34.33;7.38;;;;;;;;;;5055344;28;20039;-64
2023/03/26 03:18:34;;;;;;;40.65;7.20;;;;;;;;;;5055639;28;20036;-64
2023/03/26 03:21:01;;;;;;;46.30;7.65;;;;;;;;;;5055101;28;20060;-64
2023/03/26 03:23:27;;;;;;;40.35;7.70;;;;;;;;;;5055517;28;20493;-64
2023/03/26 03:25:55;;;;;;;32.65;7.20;;;;;;;;;;5055092;28;20068;-64
2023/03/26 03:28:22;;;;;;;39.13;7.82;;;;;;;;;;5055408;28;20032;-65
2023/03/26 03:30:52;;;;;;;41.15;7.18;;;;;;;;;;5055448;28;20032;-64
2023/03/26 03:33:19;;;;;;;35.22;7.65;;;;;;;;;;5055293;28;20057;-66
2023/03/26 03:35:45;;;;;;;47.05;7.88;;;;;;;;;;5054815;28;20048;-64
2023/03/26 03:38:11;;;;;;;38.45;7.25;;;;;;;;;;5055073;28;20040;-64
2023/03/26 03:40:37;;;;;;;40.20;8.07;;;;;;;;;;5055145;28;20037;-64
2023/03/26 03:43:03;;;;;;;48.75;8.00;;;;;;;;;;5054942;28;20024;-64
2023/03/26 03:45:29;;;;;;;34.92;6.18;;;;;;;;;;5055070;28;20127;-64
2023/03/26 03:47:55;;;;;;;42.22;7.60;;;;;;;;;;5055069;28;20445;-64
2023/03/26 03:50:21;;;;;;;41.50;7.00;;;;;;;;;;5055013;28;20122;-64
2023/03/26 03:52:47;;;;;;;45.72;7.07;;;;;;;;;;5054972;28;20045;-64
2023/03/26 03:55:14;;;;;;;35.92;6.60;;;;;;;;;;5054751;28;20036;-64
2023/03/26 03:57:40;;;;;;;42.45;6.65;;;;;;;;;;5054336;28;20028;-64
2023/03/26 04:00:08;;;;;;;31.42;6.45;;;;;;;;;;5053721;28;20573;-64
2023/03/26 04:02:35;;;;;;;32.63;6.70;;;;;;;;;;5054699;28;20032;-64
2023/03/26 04:05:02;;;;;;;42.08;7.15;;;;;;;;;;5054573;28;20116;-64
2023/03/26 04:07:31;;;;;;;46.67;6.90;;;;;;;;;;5054319;28;20111;-64
2023/03/26 04:09:58;;;;;;;29.30;5.85;;;;;;;;;;5054241;28;20144;-64
2023/03/26 04:12:24;;;;;;;39.65;7.25;;;;;;;;;;5054529;28;20368;-64
2023/03/26 04:14:50;;;;;;;42.17;7.53;;;;;;;;;;5054507;28;20032;-64
2023/03/26 04:17:16;;;;;;;40.75;7.18;;;;;;;;;;5054426;28;20041;-64
2023/03/26 04:19:43;;;;;;;35.08;8.05;;;;;;;;;;5054346;28;20041;-64
2023/03/26 04:22:10;;;;;;;32.33;6.32;;;;;;;;;;5054202;28;20025;-68
2023/03/26 04:24:38;;;;;;;40.22;6.95;;;;;;;;;;5054361;28;20032;-64
2023/03/26 04:27:05;;;;;;;44.65;7.45;;;;;;;;;;5054254;28;20112;-64
2023/03/26 04:29:37;;;;;;;37.05;7.38;;;;;;;;;;5054228;28;20035;-64
2023/03/26 04:32:05;;;;;;;41.92;8.45;;;;;;;;;;5053764;28;20071;-64
2023/03/26 04:34:33;;;;;;;37.75;7.72;;;;;;;;;;5053732;28;20040;-64
2023/03/26 04:37:00;;;;;;;38.95;8.70;;;;;;;;;;5053535;28;20053;-64
2023/03/26 04:39:28;;;;;;;44.70;8.82;;;;;;;;;;5054052;28;20029;-64
2023/03/26 04:41:54;;;;;;;47.13;9.07;;;;;;;;;;5053864;28;20391;-64
2023/03/26 04:44:21;;;;;;;56.50;10.82;;;;;;;;;;5053793;28;20067;-64
2023/03/26 04:46:47;;;;;;;37.25;8.25;;;;;;;;;;5053967;28;20037;-64
2023/03/26 04:49:13;;;;;;;26.25;7.68;;;;;;;;;;5053856;28;20021;-64
2023/03/26 04:51:41;;;;;;;36.85;7.93;;;;;;;;;;5053880;28;20033;-64
2023/03/26 04:54:07;;;;;;;36.55;8.15;;;;;;;;;;5053629;28;20032;-64
2023/03/26 04:56:53;;;;;;;49.83;9.80;;;;;;;;;;5053380;28;20033;-64
2023/03/26 04:59:28;;;;;;;45.60;9.68;;;;;;;;;;5053738;28;20080;-64
2023/03/26 05:01:55;;;;;;;34.08;8.75;;;;;;;;;;5053721;28;20028;-64
2023/03/26 05:04:21;;;;;;;37.83;8.60;;;;;;;;;;5053590;28;20483;-64
2023/03/26 05:06:47;;;;;;;47.88;9.68;;;;;;;;;;5053444;28;20040;-64
2023/03/26 05:09:14;;;;;;;41.15;8.18;;;;;;;;;;5053701;28;20613;-64
2023/03/26 05:11:40;;;;;;;42.25;9.50;;;;;;;;;;5053172;28;20079;-64
2023/03/26 05:14:06;;;;;;;35.58;9.15;;;;;;;;;;5053505;28;20036;-64
2023/03/26 05:16:32;;;;;;;34.80;8.23;;;;;;;;;;5052932;28;20031;-64
2023/03/26 05:18:58;;;;;;;33.00;8.48;;;;;;;;;;5053240;28;20103;-64
2023/03/26 05:21:24;;;;;;;31.08;7.25;;;;;;;;;;5053247;28;20075;-64
2023/03/26 05:23:50;;;;;;;35.08;7.47;;;;;;;;;;5053399;28;20025;-64
2023/03/26 05:26:17;;;;;;;34.53;7.57;;;;;;;;;;5053494;28;20039;-64
2023/03/26 05:28:42;;;;;;;35.88;9.10;;;;;;;;;;5053255;28;20546;-64
2023/03/26 05:31:09;;;;;;;36.47;9.13;;;;;;;;;;5053290;28;20115;-64
2023/03/26 05:33:35;;;;;;;31.67;8.27;;;;;;;;;;5053273;28;20029;-64
2023/03/26 05:36:03;;;;;;;36.97;8.52;;;;;;;;;;5052802;28;20064;-64
2023/03/26 05:38:29;;;;;;;41.47;9.07;;;;;;;;;;5053173;28;20036;-64
2023/03/26 05:40:58;;;;;;;36.05;8.15;;;;;;;;;;5053249;28;20021;-64
2023/03/26 05:43:24;;;;;;;38.67;8.43;;;;;;;;;;5053327;28;20025;-64
2023/03/26 05:45:50;;;;;;;43.88;9.52;;;;;;;;;;5053215;28;20486;-64
2023/03/26 05:48:17;;;;;;;34.17;8.45;;;;;;;;;;5053046;28;20032;-64
2023/03/26 05:50:43;;;;;;;42.63;9.40;;;;;;;;;;5053092;28;20036;-64
2023/03/26 05:53:09;;;;;;;35.40;8.18;;;;;;;;;;5053006;28;20431;-64
2023/03/26 05:55:35;;;;;;;38.55;8.35;;;;;;;;;;5052741;28;20021;-64
2023/03/26 05:58:01;;;;;;;35.67;7.85;;;;;;;;;;5052706;28;20035;-64
2023/03/26 06:00:27;;;;;;;34.55;7.75;;;;;;;;;;5053115;28;20029;-64
2023/03/26 06:02:54;;;;;;;45.58;8.07;;;;;;;;;;5053004;28;20037;-64
2023/03/26 06:05:20;;;;;;;31.88;9.15;;;;;;;;;;5053035;28;20108;-65
2023/03/26 06:07:46;;;;;;;37.13;8.43;;;;;;;;;;5052661;28;20033;-64
2023/03/26 06:10:12;;;;;;;41.25;8.57;;;;;;;;;;5052943;28;20047;-64
2023/03/26 06:12:38;;;;;;;35.08;8.45;;;;;;;;;;5052841;28;20060;-64
2023/03/26 06:15:04;;;;;;;43.10;7.80;;;;;;;;;;5052804;28;20036;-64
2023/03/26 06:17:30;;;;;;;36.03;7.30;;;;;;;;;;5052681;28;20078;-64
2023/03/26 06:19:57;;;;;;;37.10;8.32;;;;;;;;;;5052797;28;20116;-64
2023/03/26 06:22:23;;;;;;;38.42;8.07;;;;;;;;;;5053963;28;20013;-64
2023/03/26 06:24:51;;;;;;;38.20;7.82;;;;;;;;;;5056648;28;20025;-64
2023/03/26 06:27:17;;;;;;;42.78;7.93;;;;;;;;;;5056687;28;20043;-64
2023/03/26 06:29:43;;;;;;;32.72;8.10;;;;;;;;;;5056343;28;20442;-64
2023/03/26 06:32:09;;;;;;;48.00;8.90;;;;;;;;;;5056269;28;20368;-64
2023/03/26 06:34:35;;;;;;;33.55;8.38;;;;;;;;;;5056224;28;20029;-64
2023/03/26 06:37:01;;;;;;;29.15;7.70;;;;;;;;;;5055915;28;20037;-64
2023/03/26 06:39:27;;;;;;;34.80;8.55;;;;;;;;;;5056408;28;20025;-64
2023/03/26 06:41:53;;;;;;;44.00;9.05;;;;;;;;;;5056178;28;20060;-64
2023/03/26 06:44:19;;;;;;;32.38;8.45;;;;;;;;;;5056277;28;20064;-65
2023/03/26 06:46:45;;;;;;;35.42;8.15;;;;;;;;;;5056099;28;20108;-64
2023/03/26 06:49:11;;;;;;;44.05;8.63;;;;;;;;;;5055921;28;20025;-64
2023/03/26 06:51:39;;;;;;;38.35;8.95;;;;;;;;;;5056150;28;20037;-64
2023/03/26 06:54:05;;;;;;;38.45;8.70;;;;;;;;;;5056182;28;20036;-64
2023/03/26 06:56:31;;;;;;;41.17;7.90;;;;;;;;;;5055690;28;20025;-64
2023/03/26 06:58:57;;;;;;;38.28;8.40;;;;;;;;;;5055724;28;20170;-64
2023/03/26 07:01:23;;;;;;;37.08;8.02;;;;;;;;;;5055875;28;20083;-64
2023/03/26 07:03:49;;;;;;;37.35;8.73;;;;;;;;;;5055724;28;20033;-64
2023/03/26 07:06:15;;;;;;;38.72;8.43;;;;;;;;;;5055950;28;20052;-64
2023/03/26 07:08:41;;;;;;;39.85;8.20;;;;;;;;;;5055505;28;20036;-64
2023/03/26 07:11:07;;;;;;;43.30;8.20;;;;;;;;;;5042232;28;20027;-64
2023/03/26 07:13:33;;;;;;;36.65;7.35;;;;;;;;;;5039454;28;20029;-66
2023/03/26 07:15:59;;;;;;;37.60;8.10;;;;;;;;;;5041735;28;20033;-64
2023/03/26 07:18:25;;;;;;;37.33;8.75;;;;;;;;;;5055486;28;20025;-64
2023/03/26 07:20:51;;;;;;;33.90;7.50;;;;;;;;;;5050336;28;20434;-66
2023/03/26 07:23:19;;;;;;;36.55;8.70;;;;;;;;;;5044416;28;20544;-67
2023/03/26 07:25:46;;;;;;;42.42;7.55;;;;;;;;;;5035615;28;20098;-65
2023/03/26 07:28:23;;;;;;;35.75;8.20;;;;;;;;;;5035102;28;20534;-64
2023/03/26 07:31:09;;;;;;;40.72;7.65;;;;;;;;;;5051443;28;20036;-64
2023/03/26 07:33:54;;;;;;;44.72;8.95;;;;;;;;;;5035842;28;20036;-64
2023/03/26 07:36:42;;;;;;;32.63;7.95;;;;;;;;;;5041043;28;20099;-65
2023/03/26 07:39:28;;;;;;;37.45;8.35;;;;;;;;;;5045202;28;20025;-64
2023/03/26 07:42:14;;;;;;;36.47;8.50;;;;;;;;;;5041932;28;20033;-64
2023/03/26 07:44:46;;;;;;;42.63;8.05;;;;;;;;;;5049805;28;20032;-64
2023/03/26 07:47:24;;;;;;;42.30;8.98;;;;;;;;;;5053399;28;20044;-64
2023/03/26 07:49:51;;;;;;;40.95;8.70;;;;;;;;;;5044882;28;20459;-64
2023/03/26 07:52:18;;;;;;;30.52;7.75;;;;;;;;;;5050608;28;20040;-64
2023/03/26 07:54:44;;;;;;;46.85;8.77;;;;;;;;;;5041946;28;20112;-64
2023/03/26 07:57:16;;;;;;;29.27;6.45;;;;;;;;;;5049102;28;20392;-64
2023/03/26 07:59:49;;;;;;;36.03;7.18;;;;;;;;;;5047907;28;20059;-64
2023/03/26 08:02:15;;;;;;;;;;;;;;;;;;5040287;28;20029;-64
2023/03/26 08:05:01;;;;;;;31.90;6.60;;;;;;;;;;5053962;28;19905;-65
2023/03/26 08:10:27;;;;;;;34.33;6.25;;;;;;;;;;5089102;27;20455;-64
2023/03/26 08:13:13;;;;;;;29.90;6.38;;;;;;;;;;5090585;28;20067;-64
2023/03/26 08:15:44;;;;;;;36.38;6.85;;;;;;;;;;5089800;28;20035;-64
2023/03/26 08:18:26;;;;;;;33.33;6.32;;;;;;;;;;5084658;28;20100;-64
2023/03/26 08:20:56;;;;;;;34.70;6.60;;;;;;;;;;5083519;28;20020;-64
2023/03/26 08:23:26;;;;;;;32.05;7.15;;;;;;;;;;5079601;28;20032;-64
2023/03/26 08:26:12;;;;;;;35.65;7.03;;;;;;;;;;5088720;28;20027;-64
2023/03/26 08:28:58;;;;;;;33.28;7.20;;;;;;;;;;5087197;28;20063;-63
2023/03/26 08:31:40;;;;;;;32.55;6.32;;;;;;;;;;5090510;28;20032;-63
2023/03/26 08:34:09;;;;;;;28.88;7.25;;;;;;;;;;5089894;28;20394;-63
2023/03/26 08:36:35;;;;;;;26.45;6.03;;;;;;;;;;5091110;28;20016;-64
2023/03/26 08:39:01;;;;;;;28.50;6.38;;;;;;;;;;5091166;28;20098;-64
2023/03/26 08:41:47;;;;;;;29.83;6.55;;;;;;;;;;5089104;28;20047;-64
2023/03/26 08:44:33;;;;;;;31.52;6.63;;;;;;;;;;5089917;28;20085;-63
2023/03/26 08:47:13;;;;;;;32.97;5.88;;;;;;;;;;5089868;28;20486;-64
2023/03/26 08:49:48;;;;;;;30.98;6.00;;;;;;;;;;5089799;28;20032;-64
2023/03/26 08:52:35;;;;;;;19.13;5.05;;;9.90;96.20;;;;;;5089767;28;20049;-64
2023/03/26 08:55:40;;;;;;;27.23;6.15;;;9.90;96.40;;;;;;5089944;28;20141;-64
2023/03/26 08:58:46;;;;;;;28.17;5.93;;;9.90;99.90;;;;;;5089847;28;20477;-63
2023/03/26 09:01:41;;;;;;;25.45;5.35;;;10.00;99.00;;;;;;5089819;28;20064;-64
2023/03/26 09:04:29;;;;;;;24.73;4.75;;;10.10;92.50;;;;;;5089933;28;20060;-63
2023/03/26 09:07:28;;;;;;;21.85;3.90;;;10.00;75.00;;;;;;5089669;28;20078;-64
2023/03/26 09:10:33;;;;;;;17.25;4.18;;;10.00;71.30;;;;;;5089290;28;20052;-64
2023/03/26 09:13:39;;;;;;;18.55;4.45;;;10.00;77.90;;;;;;5089405;28;20114;-64
2023/03/26 09:16:35;;;;;;;18.95;3.92;;;10.00;88.30;;;;;;5089416;28;20509;-63
2023/03/26 09:19:32;;;;;;;23.35;4.20;;;10.10;92.60;;;;;;5089371;28;20121;-64
2023/03/26 09:22:37;;;;;;;21.60;4.07;;;10.10;75.70;;;;;;5075975;28;20029;-64
2023/03/26 09:25:18;;;;;;;22.65;4.30;;;10.00;94.30;;;;;;5075894;28;20029;-64
2023/03/26 09:28:24;;;;;;;16.15;3.88;;;10.00;94.70;;;;;;5076022;28;20040;-64
2023/03/26 09:31:08;;;;;;;22.20;4.78;;;10.10;99.90;;;;;;5075594;28;20037;-63
2023/03/26 09:33:55;;;;;;;22.70;4.28;;;;;;;;;;5075746;28;20021;-63
2023/03/26 09:36:42;;;;;;;24.13;4.50;;;;;;;;;;5075652;28;20543;-64
2023/03/26 09:39:10;;;;;;;19.67;4.25;;;;;;;;;;5075781;28;20483;-64
2023/03/26 09:41:53;;;;;;;21.05;4.05;;;;;;;;;;5075517;28;20028;-64
2023/03/26 09:44:40;;;;;;;22.55;3.65;;;;;;;;;;5075749;28;20037;-63
2023/03/26 09:47:26;;;;;;;22.75;4.18;;;;;;;;;;5075709;28;20024;-64
2023/03/26 09:50:13;;;;;;;17.30;4.30;;;;;;;;;;5075127;28;20090;-64
2023/03/26 09:52:53;;;;;;;20.67;3.45;;;;;;;;;;5075456;28;20075;-64
2023/03/26 09:58:23;;;;;;;14.90;3.25;;;;;;;;;;5070608;28;20692;-64
2023/03/26 10:01:11;;;;;;;13.80;2.92;;;;;;;;;;5070655;28;20447;-64
2023/03/26 10:03:49;;;;;;;8.07;2.38;;;;;;;;;;5070602;28;20044;-64
2023/03/26 10:06:38;;;;;;;12.13;2.47;;;;;;;;;;5070627;28;20029;-64
2023/03/26 10:09:17;;;;;;;9.63;2.00;;;;;;;;;;5070347;28;20036;-64
2023/03/26 10:12:04;;;;;;;8.38;1.80;;;;;;;;;;5070342;28;20074;-65
2023/03/26 10:14:58;;;;;;;11.05;2.03;;;;;;;;;;5070495;28;20028;-64
2023/03/26 10:17:41;;;;;;;8.73;1.98;;;;;;;;;;5070038;28;20490;-64
2023/03/26 10:20:39;;;;;;;10.75;2.35;;;;;;;;;;5070250;28;20090;-64
2023/03/26 10:23:32;;;;;;;10.88;2.17;;;;;;;;;;5069949;28;20090;-64
2023/03/26 10:26:15;;;;;;;4.70;2.03;;;;;;;;;;5069844;28;20059;-64
2023/03/26 10:29:09;;;;;;;7.75;2.45;;;;;;;;;;5070174;28;20397;-64
2023/03/26 10:31:38;;;;;;;9.10;2.30;;;;;;;;;;5070046;28;20039;-64
2023/03/26 10:36:58;;;;;;;9.52;1.95;;;;;;;;;;5111228;27;20355;-63
2023/03/26 10:39:31;;;;;;;9.45;2.47;;;;;;;;;;5110960;28;20035;-64
2023/03/26 10:42:04;;;;;;;8.93;2.58;;;;;;;;;;5111222;28;20443;-64
2023/03/26 10:44:36;;;;;;;10.57;3.10;;;;;;;;;;5111117;28;20503;-64
2023/03/26 10:47:11;;;;;;;13.98;2.50;;;;;;;;;;5111218;28;20039;-64
2023/03/26 10:49:48;;;;;;;10.30;2.40;;;;;;;;;;5110938;28;20424;-63
2023/03/26 10:52:19;;;;;;;10.70;2.38;;;;;;;;;;5110861;28;20028;-63
2023/03/26 10:55:05;;;;;;;8.93;2.40;;;;;;;;;;5110899;28;20066;-64
2023/03/26 10:57:51;;;;;;;13.65;2.65;;;;;;;;;;5110861;28;20053;-64
2023/03/26 11:00:24;;;;;;;8.95;2.20;;;;;;;;;;5110722;28;20477;-64
2023/03/26 11:03:10;;;;;;;10.00;2.35;;;;;;;;;;5110940;28;20454;-64
2023/03/26 11:05:55;;;;;;;8.35;2.33;;;;;;;;;;5110431;28;20062;-64
2023/03/26 11:08:29;;;;;;;14.50;2.80;;;;;;;;;;5110160;28;20059;-64
2023/03/26 11:11:03;;;;;;;6.97;2.35;;;;;;;;;;5110343;28;20056;-65
2023/03/26 11:13:48;;;;;;;10.43;2.83;;;;;;;;;;5110316;27;20048;-64
2023/03/26 11:16:25;;;;;;;9.02;2.67;;;;;;;;;;5110303;28;20405;-64
2023/03/26 11:18:55;;;;;;;10.13;2.00;;;;;;;;;;5110635;27;20043;-64
2023/03/26 11:21:40;;;;;;;7.05;2.00;;;;;;;;;;5110578;28;20024;-64
2023/03/26 11:24:17;;;;;;;9.30;2.03;;;;;;;;;;5110414;28;20055;-64
2023/03/26 11:26:54;;;;;;;12.48;2.17;;;;;;;;;;5110183;28;20041;-64
2023/03/26 11:29:40;;;;;;;7.40;1.80;;;;;;;;;;5110488;28;20032;-64
2023/03/26 11:32:11;;;;;;;6.03;2.35;;;;;;;;;;5110133;28;20043;-64
2023/03/26 11:34:39;;;;;;;5.75;1.48;;;;;;;;;;5109806;28;20050;-65
2023/03/26 11:37:08;;;;;;;5.72;2.25;;;;;;;;;;5110220;28;20067;-64
2023/03/26 11:39:39;;;;;;;6.05;2.00;;;;;;;;;;5110182;28;20028;-64
2023/03/26 11:42:10;;;;;;;7.55;1.83;;;;;;;;;;5110141;28;20518;-64
2023/03/26 11:44:38;;;;;;;7.47;2.00;;;;;;;;;;5110056;28;20381;-64
2023/03/26 11:47:08;;;;;;;9.95;2.20;;;;;;;;;;5102698;28;20412;-65
2023/03/26 11:49:35;;;;;;;6.72;1.70;;;;;;;;;;5096373;28;20025;-64
2023/03/26 11:52:02;;;;;;;7.63;1.88;;;;;;;;;;5096410;28;20442;-65
2023/03/26 11:54:28;;;;;;;7.90;2.30;;;;;;;;;;5096069;28;20054;-65
2023/03/26 11:57:00;;;;;;;9.13;1.73;;;;;;;;;;5096326;28;20474;-65
2023/03/26 11:59:28;;;;;;;4.65;2.10;;;;;;;;;;5095721;28;20016;-65
2023/03/26 12:01:57;;;;;;;10.15;2.15;;;;;;;;;;5096071;28;20027;-65
2023/03/26 12:04:28;;;;;;;5.82;1.70;;;;;;;;;;5096090;28;20432;-64
2023/03/26 12:06:58;;;;;;;7.68;1.60;;;;;;;;;;5096025;28;20036;-64
2023/03/26 12:09:25;;;;;;;6.28;1.67;;;;;;;;;;5096090;28;20028;-63
2023/03/26 12:11:53;;;;;;;4.72;1.50;;;;;;;;;;5095956;28;20024;-64
2023/03/26 12:14:21;;;;;;;6.15;1.55;;;;;;;;;;5095889;28;20062;-64
2023/03/26 12:17:07;;;;;;;8.27;1.80;;;;;;;;;;5095399;28;20437;-64
2023/03/26 12:19:35;;;;;;;8.00;1.95;;;;;;;;;;5095782;28;20520;-64
2023/03/26 12:22:01;;;;;;;7.03;1.67;;;;;;;;;;5095636;28;20538;-64
2023/03/26 12:24:30;;;;;;;5.75;1.83;;;;;;;;;;5095827;28;20032;-64
2023/03/26 12:27:00;;;;;;;5.47;1.65;;;;;;;;;;5095310;28;20039;-64
2023/03/26 12:29:27;;;;;;;7.78;1.65;;;;;;;;;;5095515;28;20077;-64
2023/03/26 12:31:58;;;;;;;4.53;1.65;;;;;;;;;;5095614;28;20034;-64
2023/03/26 12:34:34;;;;;;;2.47;1.08;;;;;;;;;;5095338;28;20389;-65
2023/03/26 12:37:00;;;;;;;2.58;0.70;;;;;;;;;;5095435;28;20060;-64
2023/03/26 12:39:29;;;;;;;3.65;1.08;;;;;;;;;;5095449;28;20028;-65
2023/03/26 12:41:57;;;;;;;3.08;1.20;;;;;;;;;;5095379;28;20012;-66
2023/03/26 12:44:27;;;;;;;3.92;1.27;;;;;;;;;;5095521;28;20020;-65
2023/03/26 12:47:07;;;;;;;2.65;1.08;;;;;;;;;;5095374;28;20546;-65
2023/03/26 12:49:33;;;;;;;6.03;1.92;;;;;;;;;;5095195;28;20028;-66
2023/03/26 12:52:09;;;;;;;7.40;1.73;;;;;;;;;;5095197;28;20397;-66
2023/03/26 12:54:55;;;;;;;5.75;1.20;;;;;;;;;;5095087;28;20024;-64
2023/03/26 12:57:23;;;;;;;3.75;1.35;;;;;;;;;;5094199;28;20032;-65
2023/03/26 12:59:56;;;;;;;4.78;1.35;;;;;;;;;;5094053;28;20024;-65
2023/03/26 13:02:42;;;;;;;8.40;1.83;;;;;;;;;;5094907;28;20032;-65
2023/03/26 13:05:28;;;;;;;6.85;1.83;;;;;;;;;;5094870;28;20027;-65
2023/03/26 13:08:14;;;;;;;6.72;1.73;;;;;;;;;;5094501;28;20024;-64
2023/03/26 13:10:48;;;;;;;5.30;1.65;;;;;;;;;;5094663;28;20070;-64
2023/03/26 13:13:34;;;;;;;3.45;1.42;;;;;;;;;;5094269;28;20109;-64
2023/03/26 13:16:02;;;;;;;6.22;1.90;;;;;;;;;;5094526;28;20032;-64
2023/03/26 13:18:37;;;;;;;3.90;1.27;;;;;;;;;;5094333;28;20036;-65
2023/03/26 13:21:07;;;;;;;1.10;1.00;;;;;;;;;;5094644;28;20036;-64
2023/03/26 13:23:53;;;;;;;3.55;1.27;;;;;;;;;;5094595;28;20025;-64
2023/03/26 13:26:34;;;;;;;4.55;1.13;;;;;;;;;;5094246;28;20059;-64
2023/03/26 13:29:08;;;;;;;4.57;1.00;;;;;;;;;;5094568;28;20024;-64
2023/03/26 13:31:38;;;;;;;2.33;1.10;;;;;;;;;;5094296;28;20474;-64
2023/03/26 13:34:15;;;;;;;3.13;0.95;;;;;;;;;;5093960;28;20062;-64
2023/03/26 13:37:02;;;;;;;1.35;0.65;;;;;;;;;;5093957;28;20527;-64
2023/03/26 13:39:40;;;;;;;3.08;0.93;;;;;;;;;;5094194;28;20104;-65
2023/03/26 13:42:17;;;;;;;2.72;0.90;;;;;;;;;;5094201;28;20447;-65
2023/03/26 13:44:51;;;;;;;4.18;1.20;;;;;;;;;;5094166;28;20020;-64
2023/03/26 13:47:19;;;;;;;2.95;1.10;;;;;;;;;;5094109;28;20016;-65
2023/03/26 13:49:51;;;;;;;2.28;0.85;;;;;;;;;;5093663;28;20023;-64
2023/03/26 13:52:23;;;;;;;2.30;1.27;;;;;;;;;;5094017;28;20020;-65
2023/03/26 13:54:51;;;;;;;2.55;1.10;;;;;;;;;;5093739;28;20035;-64
2023/03/26 13:57:22;;;;;;;2.67;0.68;;;;;;;;;;5093844;28;20473;-64
2023/03/26 13:59:56;;;;;;;1.98;0.68;;;;;;;;;;5093822;28;20020;-64
2023/03/26 14:02:22;;;;;;;;;;;;;;;;;;5094159;28;20105;-64
2023/03/26 14:04:51;;;;;;;2.08;0.65;;;;;;;;;;5093632;28;19904;-64
2023/03/26 14:07:22;;;;;;;3.05;0.82;;;;;;;;;;5093675;28;20032;-64
2023/03/26 14:09:53;;;;;;;1.63;1.00;;;;;;;;;;5093509;28;20431;-65
2023/03/26 14:12:30;;;;;;;2.17;0.50;;;;;;;;;;5093523;28;20047;-65
2023/03/26 14:15:05;;;;;;;1.40;0.70;;;;;;;;;;5093571;28;20482;-65
2023/03/26 14:17:40;;;;;;;1.85;1.00;;;;;;;;;;5093428;28;20026;-65
2023/03/26 14:20:26;;;;;;;4.03;1.33;;;;;;;;;;5093628;28;20031;-65
2023/03/26 14:25:55;;;;;;;3.67;0.90;;;;;;;;;;5111163;27;20789;-65
2023/03/26 14:31:08;;;;;;;4.03;1.30;;;;;;;;;;5111189;27;20381;-65
2023/03/26 14:33:43;;;;;;;2.45;0.98;;;;;;;;;;5111201;28;20036;-64
2023/03/26 14:36:29;;;;;;;1.33;0.90;;;;;;;;;;5111218;28;20028;-65
2023/03/26 14:39:04;;;;;;;1.50;1.20;;;;;;;;;;5111118;28;20027;-65
2023/03/26 14:41:41;;;;;;;1.50;0.68;;;;;;;;;;5111109;28;20024;-65
2023/03/26 14:44:16;;;;;;;1.85;0.75;;;;;;;;;;5111047;28;20111;-65
2023/03/26 14:47:03;;;;;;;2.40;1.00;;;;;;;;;;5111040;28;20050;-65
2023/03/26 14:49:50;;;;;;;7.43;2.13;;;;;;;;;;5110793;28;20024;-65
2023/03/26 14:52:32;;;;;;;5.70;2.63;;;;;;;;;;5110746;28;20450;-65
2023/03/26 14:55:02;;;;;;;6.13;2.90;;;;;;;;;;5110927;28;20478;-64
2023/03/26 14:57:43;;;;;;;10.05;3.25;;;;;;;;;;5110505;27;20030;-65
2023/03/26 15:00:21;;;;;;;7.32;4.30;;;;;;;;;;5110821;28;20028;-64
2023/03/26 15:03:06;;;;;;;10.50;4.80;;;;;;;;;;5110330;27;20035;-64
2023/03/26 15:05:52;;;;;;;9.95;5.10;;;;;;;;;;5110658;28;20085;-64
2023/03/26 15:08:37;;;;;;;10.27;5.72;;;;;;;;;;5110083;27;20435;-64
2023/03/26 15:14:02;;;;;;;11.80;4.60;;;;;;;;;;5070699;28;20399;-64
2023/03/26 15:16:48;;;;;;;8.25;3.50;;;;;;;;;;5070710;28;20036;-64
2023/03/26 15:19:35;;;;;;;8.98;3.83;;;;;;;;;;5070458;28;20021;-64